createdAt,value
2024-02-28T00:02:05.621Z,2.10
2024-02-28T00:04:32.520Z,1.70
2024-02-28T00:06:59.786Z,2.20
2024-02-28T00:09:26.912Z,2.85
2024-02-28T00:11:53.855Z,2.40
2024-02-28T00:14:20.871Z,2.75
2024-02-28T00:16:49.339Z,2.22
2024-02-28T00:19:16.401Z,1.77
2024-02-28T00:21:43.604Z,2.20
2024-02-28T00:24:10.862Z,1.73
2024-02-28T00:26:41.754Z,1.80
2024-02-28T00:29:08.623Z,1.77
2024-02-28T00:31:35.533Z,1.75
2024-02-28T00:34:03.671Z,1.35
2024-02-28T00:36:39.674Z,1.60
2024-02-28T00:39:14.960Z,1.58
2024-02-28T00:41:41.817Z,1.13
2024-02-28T00:44:08.722Z,1.00
2024-02-28T00:46:35.564Z,1.52
2024-02-28T00:49:02.501Z,1.08
2024-02-28T00:51:29.475Z,1.30
2024-02-28T00:53:56.429Z,1.30
2024-02-28T00:56:25.593Z,1.20
2024-02-28T00:58:52.528Z,1.10
2024-02-28T01:01:19.456Z,1.30
2024-02-28T01:03:46.617Z,1.48
2024-02-28T01:06:13.526Z,1.40
2024-02-28T01:08:41.512Z,1.15
2024-02-28T01:11:08.426Z,1.23
2024-02-28T01:13:35.341Z,1.27
2024-02-28T01:16:02.360Z,1.73
2024-02-28T01:18:31.923Z,1.48
2024-02-28T01:21:00.346Z,1.05
2024-02-28T01:23:27.440Z,1.45
2024-02-28T01:25:54.259Z,1.40
2024-02-28T01:28:21.275Z,1.50
2024-02-28T01:30:48.216Z,1.70
2024-02-28T01:33:15.297Z,1.58
2024-02-28T01:35:42.162Z,1.65
2024-02-28T01:38:09.101Z,1.40
2024-02-28T01:40:36.106Z,1.23
2024-02-28T01:43:09.661Z,1.33
2024-02-28T01:45:37.261Z,1.88
2024-02-28T01:48:07.896Z,1.58
2024-02-28T01:50:34.903Z,1.40
2024-02-28T01:53:02.826Z,1.27
2024-02-28T01:55:29.834Z,1.63
2024-02-28T01:57:57.350Z,1.42
2024-02-28T02:00:26.290Z,1.60
2024-02-28T02:02:53.150Z,1.45
2024-02-28T02:05:22.254Z,1.33
2024-02-28T02:07:50.085Z,1.83
2024-02-28T02:10:17.093Z,1.20
2024-02-28T02:12:44.004Z,1.60
2024-02-28T02:15:11.494Z,1.38
2024-02-28T02:17:38.542Z,1.50
2024-02-28T02:20:07.213Z,1.63
2024-02-28T02:22:40.193Z,1.40
2024-02-28T02:25:07.678Z,1.38
2024-02-28T02:27:34.576Z,2.00
2024-02-28T02:30:02.431Z,1.65
2024-02-28T02:32:29.879Z,1.45
2024-02-28T02:34:57.090Z,1.50
2024-02-28T02:37:23.974Z,1.95
2024-02-28T02:39:50.920Z,2.30
2024-02-28T02:42:18.828Z,1.45
2024-02-28T02:44:45.858Z,1.73
2024-02-28T02:47:12.726Z,1.77
2024-02-28T02:49:39.604Z,1.80
2024-02-28T02:52:06.723Z,1.40
2024-02-28T02:54:33.785Z,1.48
2024-02-28T02:57:00.712Z,1.55
2024-02-28T02:59:28.326Z,1.40
2024-02-28T03:01:55.182Z,1.30
2024-02-28T03:04:22.125Z,0.60
2024-02-28T03:06:50.069Z,1.05
2024-02-28T03:09:17.046Z,1.10
2024-02-28T03:11:44.350Z,1.00
2024-02-28T03:14:11.312Z,1.25
2024-02-28T03:16:42.837Z,0.75
2024-02-28T03:19:11.892Z,0.98
2024-02-28T03:21:39.001Z,0.88
2024-02-28T03:24:06.158Z,1.20
2024-02-28T03:26:33.074Z,1.23
2024-02-28T03:29:00.724Z,0.90
2024-02-28T03:31:28.719Z,0.93
2024-02-28T03:33:56.050Z,1.00
2024-02-28T03:36:23.082Z,0.75
2024-02-28T03:38:49.995Z,1.40
2024-02-28T03:41:16.862Z,0.50
2024-02-28T03:43:43.856Z,1.20
2024-02-28T03:46:10.747Z,0.77
2024-02-28T03:48:37.781Z,0.90
2024-02-28T03:51:05.610Z,0.80
2024-02-28T03:53:33.389Z,0.93
2024-02-28T03:56:00.300Z,0.90
2024-02-28T03:58:27.200Z,1.05
2024-02-28T04:00:54.218Z,1.30
2024-02-28T04:03:22.109Z,1.17
2024-02-28T04:05:48.949Z,0.90
2024-02-28T04:08:15.949Z,0.63
2024-02-28T04:10:42.879Z,0.70
2024-02-28T04:13:10.430Z,0.80
2024-02-28T04:15:38.728Z,0.95
2024-02-28T04:18:06.139Z,0.80
2024-02-28T04:20:33.569Z,0.77
2024-02-28T04:23:00.759Z,0.82
2024-02-28T04:25:27.581Z,0.82
2024-02-28T04:27:54.605Z,0.80
2024-02-28T04:30:21.636Z,0.73
2024-02-28T04:32:48.637Z,1.10
2024-02-28T04:35:19.668Z,0.80
2024-02-28T04:37:50.111Z,1.00
2024-02-28T04:40:17.155Z,0.80
2024-02-28T04:42:46.792Z,1.15
2024-02-28T04:45:14.141Z,0.95
2024-02-28T04:47:44.310Z,0.77
2024-02-28T04:50:12.674Z,0.93
2024-02-28T04:52:39.751Z,1.15
2024-02-28T04:55:09.381Z,0.80
2024-02-28T04:57:36.702Z,0.70
2024-02-28T05:00:04.855Z,1.00
2024-02-28T05:02:31.865Z,0.75
2024-02-28T05:04:59.888Z,1.17
2024-02-28T05:07:26.902Z,1.30
2024-02-28T05:09:53.871Z,1.20
2024-02-28T05:12:20.750Z,1.30
2024-02-28T05:14:47.677Z,1.55
2024-02-28T05:17:14.503Z,1.60
2024-02-28T05:19:42.220Z,1.25
2024-02-28T05:22:12.352Z,1.40
2024-02-28T05:24:39.402Z,1.30
2024-02-28T05:27:06.191Z,1.10
2024-02-28T05:29:33.106Z,1.33
2024-02-28T05:32:00.025Z,1.92
2024-02-28T05:34:26.936Z,2.00
2024-02-28T05:36:53.987Z,2.65
2024-02-28T05:39:21.644Z,3.25
2024-02-28T05:41:48.547Z,3.90
2024-02-28T05:44:16.336Z,4.78
2024-02-28T05:46:43.598Z,5.97
2024-02-28T05:49:10.752Z,8.15
2024-02-28T05:51:37.720Z,7.40
2024-02-28T05:54:04.928Z,6.90
2024-02-28T05:56:31.917Z,7.35
2024-02-28T05:58:59.043Z,7.55
2024-02-28T06:01:26.133Z,8.32
2024-02-28T06:03:53.700Z,9.43
2024-02-28T06:06:20.692Z,10.35
2024-02-28T06:08:48.418Z,11.27
2024-02-28T06:11:15.414Z,12.25
2024-02-28T06:13:42.701Z,11.85
2024-02-28T06:16:14.846Z,13.95
2024-02-28T06:18:41.742Z,15.05
2024-02-28T06:21:08.832Z,14.52
2024-02-28T06:23:35.980Z,14.80
2024-02-28T06:26:03.156Z,16.15
2024-02-28T06:28:30.097Z,17.75
2024-02-28T06:30:57.013Z,18.60
2024-02-28T06:33:23.998Z,22.20
2024-02-28T06:35:51.029Z,19.08
2024-02-28T06:38:17.907Z,21.27
2024-02-28T06:40:44.809Z,20.08
2024-02-28T06:43:11.840Z,17.48
2024-02-28T06:45:38.982Z,15.13
2024-02-28T06:48:06.861Z,12.63
2024-02-28T06:50:33.824Z,12.52
2024-02-28T06:53:00.748Z,11.07
2024-02-28T06:55:27.569Z,10.52
2024-02-28T06:57:54.611Z,10.45
2024-02-28T07:00:22.371Z,10.93
2024-02-28T07:02:49.279Z,12.32
2024-02-28T07:05:16.199Z,12.15
2024-02-28T07:07:43.139Z,12.43
2024-02-28T07:10:10.418Z,12.25
2024-02-28T07:12:38.364Z,13.93
2024-02-28T07:15:05.770Z,15.15
2024-02-28T07:17:32.816Z,15.07
2024-02-28T07:19:59.705Z,16.50
2024-02-28T07:22:26.855Z,14.20
2024-02-28T07:24:54.032Z,14.90
2024-02-28T07:27:25.321Z,18.63
2024-02-28T07:29:52.236Z,16.55
2024-02-28T07:32:19.091Z,15.07
2024-02-28T07:34:46.166Z,15.02
2024-02-28T07:37:13.410Z,15.90
2024-02-28T07:39:40.404Z,14.27
2024-02-28T07:42:07.419Z,14.65
2024-02-28T07:44:34.443Z,16.10
2024-02-28T07:47:01.705Z,14.35
2024-02-28T07:49:29.178Z,11.32
2024-02-28T08:04:51.914Z,10.18
2024-02-28T08:07:19.432Z,11.05
2024-02-28T08:09:46.289Z,8.85
2024-02-28T08:12:13.098Z,10.93
2024-02-28T08:14:40.140Z,9.25
2024-02-28T08:17:06.998Z,7.13
2024-02-28T08:19:36.342Z,7.65
2024-02-28T08:22:03.460Z,6.07
2024-02-28T08:24:30.456Z,6.03
2024-02-28T08:26:57.436Z,6.35
2024-02-28T08:29:24.253Z,4.72
2024-02-28T08:31:51.178Z,5.20
2024-02-28T08:34:19.011Z,5.68
2024-02-28T08:36:46.007Z,3.83
2024-02-28T08:39:13.008Z,3.25
2024-02-28T08:41:39.785Z,3.33
2024-02-28T08:44:07.633Z,3.10
2024-02-28T08:46:34.500Z,3.60
2024-02-28T08:49:01.697Z,3.00
2024-02-28T08:51:29.543Z,2.70
2024-02-28T08:53:57.071Z,2.95
2024-02-28T08:56:25.495Z,3.10
2024-02-28T08:58:52.481Z,2.67
2024-02-28T09:01:19.484Z,3.35
2024-02-28T09:03:46.556Z,2.95
2024-02-28T09:06:13.509Z,2.50
2024-02-28T09:08:40.838Z,4.28
2024-02-28T09:11:08.265Z,2.15
2024-02-28T09:13:36.758Z,2.63
2024-02-28T09:16:04.277Z,2.95
2024-02-28T09:18:31.283Z,3.83
2024-02-28T09:20:58.226Z,3.17
2024-02-28T09:23:25.253Z,3.53
2024-02-28T09:25:52.265Z,3.97
2024-02-28T09:28:19.316Z,4.13
2024-02-28T09:30:53.145Z,5.00
2024-02-28T09:33:21.878Z,3.35
2024-02-28T09:35:48.933Z,4.20
2024-02-28T09:38:16.113Z,4.55
2024-02-28T09:40:43.965Z,3.63
2024-02-28T09:43:20.734Z,3.17
2024-02-28T09:45:49.139Z,3.45
2024-02-28T09:48:18.276Z,3.33
2024-02-28T09:50:47.001Z,6.93
2024-02-28T09:53:13.882Z,7.15
2024-02-28T09:55:40.937Z,5.60
2024-02-28T09:58:09.580Z,5.45
2024-02-28T10:00:38.686Z,5.22
2024-02-28T10:03:06.618Z,4.63
2024-02-28T10:05:34.854Z,4.75
2024-02-28T10:08:01.956Z,4.72
2024-02-28T10:10:29.695Z,3.90
2024-02-28T10:12:57.557Z,6.03
2024-02-28T10:15:24.613Z,4.75
2024-02-28T10:17:51.609Z,4.55
2024-02-28T10:20:18.683Z,4.82
2024-02-28T10:22:45.850Z,4.75
2024-02-28T10:25:12.857Z,4.03
2024-02-28T10:27:40.666Z,5.75
2024-02-28T10:30:08.542Z,6.63
2024-02-28T10:32:38.202Z,5.63
2024-02-28T10:35:10.458Z,4.53
2024-02-28T10:37:40.057Z,5.95
2024-02-28T10:40:09.038Z,5.18
2024-02-28T10:42:37.880Z,4.07
2024-02-28T10:45:14.617Z,4.47
2024-02-28T10:47:51.452Z,3.57
2024-02-28T10:50:19.046Z,5.78
2024-02-28T10:52:51.634Z,5.80
2024-02-28T10:55:26.342Z,5.15
2024-02-28T10:58:12.286Z,4.80
2024-02-28T11:00:48.411Z,5.40
2024-02-28T11:03:18.800Z,5.07
2024-02-28T11:05:50.300Z,7.28
2024-02-28T11:08:25.374Z,7.70
2024-02-28T11:11:05.457Z,7.43
2024-02-28T11:13:32.636Z,9.23
2024-02-28T11:16:11.832Z,9.23
2024-02-28T11:18:50.409Z,11.23
2024-02-28T11:21:18.217Z,11.10
2024-02-28T11:23:49.356Z,9.75
2024-02-28T11:26:17.031Z,9.50
2024-02-28T11:28:44.217Z,10.23
2024-02-28T11:31:11.228Z,10.77
2024-02-28T11:33:39.489Z,11.45
2024-02-28T11:36:07.543Z,9.77
2024-02-28T11:38:39.167Z,9.75
2024-02-28T11:41:08.191Z,11.02
2024-02-28T11:43:46.935Z,8.82
2024-02-28T11:46:19.846Z,10.00
2024-02-28T11:48:47.249Z,9.00
2024-02-28T11:51:14.247Z,8.60
2024-02-28T11:53:41.126Z,8.98
2024-02-28T11:56:09.471Z,8.82
2024-02-28T11:58:37.066Z,9.75
2024-02-28T12:01:04.486Z,8.73
2024-02-28T12:03:32.449Z,8.48
2024-02-28T12:06:00.726Z,9.23
2024-02-28T12:08:30.420Z,8.30
2024-02-28T12:11:07.670Z,8.32
2024-02-28T12:13:34.954Z,8.07
2024-02-28T12:16:02.721Z,8.48
2024-02-28T12:18:30.497Z,8.13
2024-02-28T12:20:57.485Z,7.30
2024-02-28T12:23:24.466Z,7.40
2024-02-28T12:25:51.413Z,8.68
2024-02-28T12:28:18.331Z,7.30
2024-02-28T12:30:45.412Z,7.60
2024-02-28T12:33:15.464Z,8.40
2024-02-28T12:35:43.488Z,7.15
2024-02-28T12:38:11.184Z,9.90
2024-02-28T12:40:38.208Z,8.32
2024-02-28T12:43:05.461Z,7.38
2024-02-28T12:45:32.776Z,8.52
2024-02-28T12:47:59.970Z,7.30
2024-02-28T12:50:27.360Z,10.93
2024-02-28T12:52:55.142Z,8.40
2024-02-28T12:55:24.997Z,8.75
2024-02-28T12:57:52.094Z,9.30
2024-02-28T13:00:19.481Z,11.38
2024-02-28T13:02:46.602Z,9.38
2024-02-28T13:05:16.989Z,9.70
2024-02-28T13:07:44.310Z,10.52
2024-02-28T13:10:11.437Z,11.85
2024-02-28T13:12:39.989Z,11.88
2024-02-28T13:15:09.184Z,13.70
2024-02-28T13:17:36.323Z,12.00
2024-02-28T13:20:04.724Z,11.93
2024-02-28T13:22:32.091Z,12.68
2024-02-28T13:24:59.020Z,16.45
2024-02-28T13:27:26.150Z,13.07
2024-02-28T13:29:53.036Z,12.30
2024-02-28T13:32:20.149Z,11.38
2024-02-28T13:34:49.671Z,12.77
2024-02-28T13:37:17.223Z,11.35
2024-02-28T13:39:45.151Z,14.43
2024-02-28T13:42:12.413Z,14.85
2024-02-28T13:44:39.610Z,14.80
2024-02-28T13:47:06.855Z,16.20
2024-02-28T13:49:33.825Z,15.27
2024-02-28T13:52:01.793Z,18.15
2024-02-28T13:54:28.884Z,14.90
2024-02-28T13:56:55.838Z,15.70
2024-02-28T13:59:22.743Z,14.35
2024-02-28T14:01:50.373Z,12.00
2024-02-28T14:04:17.646Z,13.15
2024-02-28T14:06:44.818Z,13.38
2024-02-28T14:09:12.718Z,9.73
2024-02-28T14:11:39.765Z,10.48
2024-02-28T14:14:07.015Z,10.40
2024-02-28T14:16:34.877Z,9.65
2024-02-28T14:19:01.807Z,7.70
2024-02-28T14:21:28.929Z,7.32
2024-02-28T14:23:55.884Z,8.82
2024-02-28T14:26:25.490Z,7.07
2024-02-28T14:28:52.868Z,7.05
2024-02-28T14:31:20.551Z,6.50
2024-02-28T14:33:47.452Z,7.28
2024-02-28T14:36:15.363Z,8.40
2024-02-28T14:38:44.686Z,8.15
2024-02-28T14:41:13.896Z,8.10
2024-02-28T14:43:41.321Z,7.28
2024-02-28T14:46:09.816Z,6.88
2024-02-28T14:48:36.977Z,6.03
2024-02-28T14:51:04.481Z,7.93
2024-02-28T14:53:31.781Z,6.35
2024-02-28T14:55:58.795Z,6.47
2024-02-28T14:58:25.689Z,4.95
2024-02-28T15:00:52.816Z,3.90
2024-02-28T15:03:19.953Z,3.58
2024-02-28T15:05:48.101Z,3.92
2024-02-28T15:08:15.059Z,3.13
2024-02-28T15:10:42.285Z,2.78
2024-02-28T15:13:09.307Z,3.35
2024-02-28T15:15:38.545Z,3.63
2024-02-28T15:18:07.846Z,3.03
2024-02-28T15:20:34.707Z,3.60
2024-02-28T15:23:01.911Z,3.53
2024-02-28T15:25:28.826Z,3.95
2024-02-28T15:27:56.388Z,3.10
2024-02-28T15:30:23.523Z,4.05
2024-02-28T15:32:50.804Z,3.85
2024-02-28T15:35:17.718Z,3.88
2024-02-28T15:37:44.652Z,3.58
2024-02-28T15:40:12.506Z,3.88
2024-02-28T15:42:40.108Z,4.18
2024-02-28T15:45:07.273Z,4.75
2024-02-28T15:47:34.624Z,4.00
2024-02-28T15:50:05.960Z,4.53
2024-02-28T15:52:32.884Z,4.95
2024-02-28T15:54:59.955Z,4.38
2024-02-28T15:57:27.013Z,4.72
2024-02-28T15:59:53.856Z,5.43
2024-02-28T16:02:21.018Z,5.55
2024-02-28T16:04:49.680Z,4.70
2024-02-28T16:07:17.068Z,4.65
2024-02-28T16:09:46.155Z,5.00
2024-02-28T16:12:13.264Z,4.63
2024-02-28T16:14:40.126Z,7.00
2024-02-28T16:17:07.585Z,6.65
2024-02-28T16:19:34.908Z,10.70
2024-02-28T16:22:02.450Z,7.78
2024-02-28T16:24:30.461Z,6.35
2024-02-28T16:26:57.439Z,6.45
2024-02-28T16:29:24.354Z,5.53
2024-02-28T16:31:51.877Z,7.47
2024-02-28T16:34:20.191Z,9.13
2024-02-28T16:36:48.939Z,7.68
2024-02-28T16:39:17.542Z,6.05
2024-02-28T16:41:44.565Z,5.57
2024-02-28T16:44:11.805Z,4.90
2024-02-28T16:46:38.754Z,6.70
2024-02-28T16:49:05.781Z,7.63
2024-02-28T16:51:32.982Z,6.22
2024-02-28T16:53:59.889Z,15.05
2024-02-28T16:56:26.951Z,14.95
2024-02-28T16:58:54.048Z,13.23
2024-02-28T17:01:23.909Z,8.90
2024-02-28T17:03:50.787Z,6.85
2024-02-28T17:06:17.789Z,6.15
2024-02-28T17:08:45.375Z,6.97
2024-02-28T17:11:13.549Z,6.72
2024-02-28T17:13:40.865Z,9.52
2024-02-28T17:16:08.320Z,9.30
2024-02-28T17:18:35.738Z,8.88
2024-02-28T17:21:04.120Z,6.38
2024-02-28T17:23:31.826Z,6.53
2024-02-28T17:26:00.144Z,6.32
2024-02-28T17:28:28.360Z,8.20
2024-02-28T17:30:55.376Z,7.50
2024-02-28T17:33:24.506Z,9.32
2024-02-28T17:35:51.470Z,9.10
2024-02-28T17:38:18.572Z,6.97
2024-02-28T17:40:45.872Z,6.13
2024-02-28T17:43:12.875Z,6.18
2024-02-28T17:45:41.024Z,6.13
2024-02-28T17:48:08.421Z,6.30
2024-02-28T17:50:36.131Z,5.75
2024-02-28T17:53:03.290Z,7.70
2024-02-28T17:55:30.645Z,7.05
2024-02-28T17:57:57.966Z,7.07
2024-02-28T18:00:28.212Z,7.38
2024-02-28T18:02:55.740Z,7.22
2024-02-28T18:05:25.110Z,9.20
2024-02-28T18:07:54.403Z,10.63
2024-02-28T18:10:22.434Z,9.18
2024-02-28T18:12:49.601Z,13.77
2024-02-28T18:15:17.742Z,17.20
2024-02-28T18:17:45.700Z,13.98
2024-02-28T18:20:13.134Z,12.02
2024-02-28T18:22:40.260Z,12.20
2024-02-28T18:25:07.936Z,11.02
2024-02-28T18:27:35.695Z,10.52
2024-02-28T18:30:03.150Z,9.45
2024-02-28T18:32:31.997Z,11.02
2024-02-28T18:35:00.687Z,9.63
2024-02-28T18:37:29.682Z,11.70
2024-02-28T18:39:56.911Z,14.95
2024-02-28T18:42:24.059Z,12.20
2024-02-28T18:44:56.667Z,12.48
2024-02-28T18:47:27.217Z,11.98
2024-02-28T18:49:54.796Z,9.82
2024-02-28T18:52:22.316Z,12.25
2024-02-28T18:54:49.381Z,9.10
2024-02-28T18:57:16.430Z,11.23
2024-02-28T18:59:43.788Z,12.07
2024-02-28T19:02:11.208Z,10.77
2024-02-28T19:04:38.371Z,10.90
2024-02-28T19:07:05.844Z,11.15
2024-02-28T19:09:34.229Z,9.57
2024-02-28T19:12:04.263Z,10.35
2024-02-28T19:14:31.472Z,11.05
2024-02-28T19:16:58.328Z,10.38
2024-02-28T19:19:26.779Z,14.40
2024-02-28T19:21:54.096Z,12.73
2024-02-28T19:24:22.923Z,15.23
2024-02-28T19:26:49.978Z,16.08
2024-02-28T19:29:16.976Z,16.17
2024-02-28T19:31:43.917Z,21.65
2024-02-28T19:34:11.034Z,17.20
2024-02-28T19:36:38.349Z,16.88
2024-02-28T19:39:05.596Z,17.30
2024-02-28T19:41:32.992Z,17.17
2024-02-28T19:44:00.414Z,18.15
2024-02-28T19:46:27.734Z,19.27
2024-02-28T19:48:54.961Z,20.52
2024-02-28T19:51:21.968Z,19.67
2024-02-28T19:53:48.999Z,19.60
2024-02-28T19:56:16.233Z,20.25
2024-02-28T19:58:48.596Z,15.07
2024-02-28T20:01:15.947Z,15.90
2024-02-28T20:03:43.060Z,16.77
2024-02-28T20:06:10.392Z,17.65
2024-02-28T20:08:38.057Z,16.75
2024-02-28T20:11:06.516Z,15.30
2024-02-28T20:13:33.753Z,18.02
2024-02-28T20:16:00.947Z,15.45
2024-02-28T20:18:27.965Z,13.82
2024-02-28T20:20:55.143Z,14.30
2024-02-28T20:23:22.318Z,15.23
2024-02-28T20:25:50.184Z,14.95
2024-02-28T20:28:22.372Z,15.50
2024-02-28T20:30:51.091Z,15.90
2024-02-28T20:33:19.638Z,14.30
2024-02-28T20:35:46.734Z,13.35
2024-02-28T20:38:13.865Z,13.82
2024-02-28T20:40:41.247Z,16.05
2024-02-28T20:43:08.208Z,15.73
2024-02-28T20:45:36.111Z,15.63
2024-02-28T20:48:04.395Z,15.07
2024-02-28T20:50:32.295Z,15.15
2024-02-28T20:53:01.405Z,12.45
2024-02-28T20:55:29.755Z,15.82
2024-02-28T20:57:56.984Z,17.10
2024-02-28T21:00:25.447Z,16.20
2024-02-28T21:02:53.093Z,16.75
2024-02-28T21:05:20.129Z,14.75
2024-02-28T21:07:52.968Z,15.15
2024-02-28T21:10:21.657Z,14.82
2024-02-28T21:12:48.943Z,16.02
2024-02-28T21:15:16.906Z,15.48
2024-02-28T21:17:44.435Z,17.98
2024-02-28T21:20:11.883Z,17.08
2024-02-28T21:22:41.114Z,16.35
2024-02-28T21:25:08.703Z,19.45
2024-02-28T21:27:36.672Z,17.05
2024-02-28T21:30:06.191Z,21.00
2024-02-28T21:32:33.678Z,16.67
2024-02-28T21:35:00.724Z,15.57
2024-02-28T21:37:27.659Z,15.75
2024-02-28T21:39:54.751Z,19.33
2024-02-28T21:42:22.017Z,24.17
2024-02-28T21:44:48.967Z,25.80
2024-02-28T21:47:15.976Z,19.05
2024-02-28T21:49:43.369Z,20.77
2024-02-28T21:52:12.080Z,24.10
2024-02-28T21:54:43.445Z,16.17
2024-02-28T21:57:11.463Z,14.63
2024-02-28T21:59:38.406Z,17.70
2024-02-28T22:02:05.782Z,15.27
2024-02-28T22:04:32.754Z,15.10
2024-02-28T22:06:59.835Z,16.88
2024-02-28T22:09:26.764Z,16.98
2024-02-28T22:11:53.744Z,17.33
2024-02-28T22:14:20.592Z,15.40
2024-02-28T22:16:47.944Z,13.70
2024-02-28T22:19:15.283Z,14.63
2024-02-28T22:21:42.383Z,14.35
2024-02-28T22:24:09.901Z,14.00
2024-02-28T22:26:36.996Z,14.38
2024-02-28T22:29:04.950Z,13.48
2024-02-28T22:31:31.931Z,13.63
2024-02-28T22:33:58.755Z,14.50
2024-02-28T22:36:25.703Z,13.35
2024-02-28T22:38:53.845Z,13.82
2024-02-28T22:41:24.946Z,12.45
2024-02-28T22:43:52.113Z,11.77
2024-02-28T22:46:19.364Z,13.32
2024-02-28T22:48:46.333Z,12.13
2024-02-28T22:51:13.195Z,12.88
2024-02-28T22:53:41.119Z,11.88
2024-02-28T22:56:07.925Z,12.88
2024-02-28T22:58:34.832Z,11.43
2024-02-28T23:01:01.978Z,13.35
2024-02-28T23:03:28.944Z,13.13
2024-02-28T23:05:55.949Z,10.82
2024-02-28T23:08:22.980Z,11.68
2024-02-28T23:10:50.213Z,11.05
2024-02-28T23:13:17.228Z,12.45
2024-02-28T23:15:44.537Z,10.57
2024-02-28T23:18:12.171Z,12.48
2024-02-28T23:20:40.240Z,12.77
2024-02-28T23:23:07.559Z,13.27
2024-02-28T23:25:36.105Z,12.90
2024-02-28T23:28:04.174Z,13.45
2024-02-28T23:30:32.020Z,12.30
2024-02-28T23:33:01.498Z,10.70
2024-02-28T23:35:29.666Z,15.38
2024-02-28T23:37:56.928Z,14.05
2024-02-28T23:40:23.935Z,12.00
2024-02-28T23:42:51.885Z,12.88
2024-02-28T23:45:18.758Z,15.40
2024-02-28T23:47:45.612Z,13.98
2024-02-28T23:50:12.959Z,14.70
2024-02-28T23:52:39.930Z,14.43
2024-02-28T23:55:07.205Z,14.82
2024-02-28T23:57:34.276Z,16.38
